Data for 06/24/2006

Time Sea-Level Adjusted Pressure Absolute Pressure Temperature Relative Humidity Dew Point   
(mb) (inHg) (mb) (inHg) (C) (F) (%) (C) (F)
00:05 1028 30.36 857 25.31 15.9 60.6 40 2.5 36.5
00:10 1028 30.36 857 25.31 15.8 60.5 41 2.7 36.8
00:15 1028 30.36 857 25.31 15.9 60.6 41 2.9 37.2
00:20 1028 30.36 857 25.31 16.1 60.9 41 3.1 37.5
00:25 1028 30.36 857 25.31 16 60.8 42 3.3 37.9
00:30 1028 30.36 857 25.31 16 60.8 43 3.4 38.1
00:35 1028 30.36 857 25.31 15.9 60.7 43 3.5 38.3
00:40 1028 30.36 857 25.31 15.9 60.6 43 3.4 38
00:45 1028 30.36 857 25.31 16 60.7 43 3.5 38.2
00:50 1028 30.36 857 25.31 15.9 60.7 43 3.4 38.2
00:55 1028 30.36 857 25.31 16 60.7 43 3.4 38
01:00 1028 30.36 857 25.31 16 60.9 43 3.4 38.2
01:05 1028 30.36 857 25.31 16 60.8 43 3.5 38.3
01:10 1028 30.36 857 25.31 15.9 60.6 43 3.6 38.4
01:15 1028 30.36 857 25.31 15.8 60.5 44 3.6 38.5
01:20 1028 30.36 857 25.31 15.8 60.5 44 3.6 38.4
01:25 1028 30.36 857 25.31 15.8 60.4 44 3.5 38.3
01:30 1028 30.36 857 25.31 15.8 60.4 44 3.7 38.6
01:35 1028 30.36 857 25.31 15.7 60.3 44 3.7 38.7
01:40 1028 30.36 857 25.31 15.6 60.1 45 3.8 38.9
01:45 1028 30.36 857 25.31 15.5 59.8 45 3.8 38.8
01:50 1028 30.36 857 25.31 15.5 59.9 45 3.8 38.9
01:55 1028 30.36 857 25.31 15.5 59.9 45 3.9 39
02:00 1028 30.36 857 25.31 15.5 60 46 4 39.3
02:05 1028 30.36 857 25.31 15.4 59.8 46 4.1 39.4
02:10 1028 30.36 857 25.31 15.4 59.6 47 4.3 39.7
02:15 1028 30.36 857 25.31 15.1 59.3 48 4.4 40
02:20 1028 30.36 857 25.31 15 59.1 50 4.7 40.4
02:25 1028 30.36 857 25.31 14.9 58.7 51 4.9 40.9
02:30 1028 30.36 857 25.31 14.7 58.4 52 5.1 41.1
02:35 1028 30.36 857 25.31 14.5 58.1 53 5 41.1
02:40 1028 30.36 857 25.31 14.3 57.8 54 5.2 41.4
02:45 1028 30.36 857 25.31 14.1 57.4 55 5.3 41.5
02:50 1028 30.36 857 25.31 14 57.2 56 5.4 41.7
02:55 1028 30.36 857 25.31 13.8 56.9 56 5.3 41.6
03:00 1028 30.36 857 25.31 13.8 56.8 57 5.4 41.8
03:05 1028 30.36 857 25.31 13.7 56.7 57 5.3 41.6
03:10 1028 30.36 857 25.31 13.7 56.7 57 5.4 41.7
03:15 1028 30.36 857 25.31 13.8 56.8 57 5.4 41.8
03:20 1028 30.36 857 25.31 13.6 56.5 58 5.5 41.9
03:25 1028 30.36 857 25.31 13.5 56.3 58 5.6 42
03:30 1028 30.36 857 25.31 13.5 56.2 58 5.5 41.9
03:35 1028 30.36 857 25.31 13.4 56.1 59 5.6 42
03:40 1028 30.36 857 25.31 13.4 56 59 5.6 42.1
03:45 1028 30.36 857 25.31 13.3 56 59 5.6 42.2
03:50 1028 30.36 857 25.31 13.2 55.8 60 5.6 42.2
03:55 1028 30.36 857 25.31 13.1 55.6 60 5.7 42.2
04:00 1028 30.36 857 25.31 13.1 55.5 60 5.6 42.1
04:05 1028 30.36 858 25.34 13 55.5 61 5.6 42.2
04:10 1028 30.36 858 25.34 13 55.4 61 5.7 42.3
04:15 1028 30.36 858 25.34 13 55.3 61 5.7 42.2
04:20 1028 30.36 858 25.34 12.9 55.2 61 5.7 42.2
04:25 1028 30.36 858 25.34 12.8 55.1 61 5.7 42.2
04:30 1028 30.36 858 25.34 12.8 55.1 61 5.6 42.1
04:35 1028 30.36 858 25.34 12.9 55.1 61 5.7 42.2
04:40 1028 30.36 857 25.31 12.8 55 62 5.7 42.2
04:45 1028 30.36 858 25.34 12.8 55 62 5.6 42.2
04:50 1028 30.36 858 25.34 12.8 55 62 5.6 42.1
04:55 1028 30.36 858 25.34 12.8 55 61 5.6 42.1
05:00 1028 30.36 858 25.34 12.8 55.1 61 5.7 42.2
05:05 1028 30.36 858 25.34 12.8 55 62 5.7 42.2
05:10 1029 30.39 858 25.34 12.8 55 62 5.7 42.2
05:15 1029 30.39 858 25.34 12.7 54.9 62 5.6 42.1
05:20 1029 30.39 858 25.34 12.7 54.8 62 5.6 42.2
05:25 1029 30.39 858 25.34 12.7 54.8 62 5.7 42.3
05:30 1029 30.39 858 25.34 12.5 54.6 63 5.7 42.2
05:35 1029 30.39 858 25.34 12.5 54.5 63 5.7 42.3
05:40 1029 30.39 858 25.34 12.4 54.4 63 5.7 42.3
05:45 1029 30.39 858 25.34 12.5 54.4 63 5.7 42.3
05:50 1029 30.39 858 25.34 12.4 54.3 64 5.7 42.3
05:55 1029 30.39 858 25.34 12.4 54.3 64 5.8 42.4
06:00 1029 30.39 858 25.34 12.3 54.2 64 5.7 42.3
06:05 1029 30.39 858 25.34 12.3 54.1 64 5.7 42.3
06:10 1029 30.39 858 25.34 12.4 54.3 64 5.8 42.4
06:15 1029 30.39 858 25.34 12.4 54.2 64 5.8 42.4
06:20 1029 30.39 858 25.34 12.5 54.4 64 5.9 42.6
06:25 1029 30.39 858 25.34 12.4 54.3 65 6 42.8
06:30 1029 30.39 858 25.34 12.2 54 66 6.1 43
06:35 1029 30.39 858 25.34 12 53.6 67 6.1 43
06:40 1029 30.39 858 25.34 11.9 53.5 67 6.1 43.1
06:45 1029 30.39 859 25.37 11.9 53.5 67 6.1 43
06:50 1029 30.39 859 25.37 12.1 53.8 67 6.1 43
06:55 1029 30.39 859 25.37 12.1 53.9 67 6.2 43.1
07:00 1029 30.39 859 25.37 12.1 53.8 67 6.3 43.3
07:05 1029 30.39 859 25.37 12 53.6 68 6.3 43.4
07:10 1029 30.39 859 25.37 12 53.6 67 6.2 43.2
07:15 1029 30.39 859 25.37 12.2 53.9 66 6.2 43.1
07:20 1029 30.39 859 25.37 12.5 54.5 66 6.3 43.3
07:25 1029 30.39 859 25.37 12.8 55 65 6.3 43.4
07:30 1029 30.39 859 25.37 13 55.5 64 6.5 43.7
07:35 1029 30.39 858 25.34 13.3 56 63 6.5 43.6
07:40 1029 30.39 859 25.37 13.7 56.7 62 6.6 44
07:45 1029 30.39 859 25.37 13.9 57.1 61 6.6 43.9
07:50 1029 30.39 859 25.37 14 57.3 59 6.3 43.3
07:55 1029 30.39 859 25.37 14.4 57.9 58 6.3 43.3
08:00 1029 30.39 859 25.37 14.9 58.8 56 6.4 43.5
08:05 1029 30.39 859 25.37 14.7 58.5 57 6.3 43.3
08:10 1029 30.39 859 25.37 14.9 58.9 56 6.4 43.5
08:15 1029 30.39 859 25.37 14.9 58.9 55 6.1 43
08:20 1029 30.39 859 25.37 15 59.1 56 6.5 43.7
08:25 1030 30.42 859 25.37 15.3 59.5 55 6.3 43.3
08:30 1030 30.42 859 25.37 15.2 59.3 56 6.5 43.8
08:35 1030 30.42 859 25.37 14.9 58.8 55 6.1 42.9
08:40 1030 30.42 859 25.37 14.9 58.9 54 5.8 42.5
08:45 1030 30.42 859 25.37 15.4 59.6 52 5.7 42.2
08:50 1030 30.42 859 25.37 15.4 59.7 52 5.8 42.4
08:55 1030 30.42 859 25.37 15.3 59.5 55 6.3 43.3
09:00 1030 30.42 859 25.37 15.1 59.3 55 6.2 43.2
09:05 1030 30.42 859 25.37 15.7 60.3 52 6 42.8
09:10 1030 30.42 859 25.37 15.6 60 54 6.3 43.4
09:15 1030 30.42 859 25.37 15.6 60.1 53 6.2 43.1
09:20 1030 30.42 859 25.37 16.2 61.1 51 6.2 43.2
09:25 1030 30.42 859 25.37 16.8 62.2 51 6.7 44
09:30 1030 30.42 859 25.37 16.4 61.5 52 6.7 44
09:35 1030 30.42 859 25.37 16.9 62.4 51 6.8 44.3
09:40 1030 30.42 859 25.37 17.1 62.8 51 7 44.6
09:45 1030 30.42 859 25.37 17.3 63.1 50 6.8 44.3
09:50 1030 30.42 859 25.37 16.8 62.2 51 6.7 44.1
09:55 1030 30.42 859 25.37 16.9 62.4 51 6.7 44
10:00 1030 30.42 859 25.37 17.1 62.9 50 6.6 43.9
10:05 1030 30.42 859 25.37 17.2 62.9 52 7.2 45
10:10 1029 30.39 859 25.37 17.5 63.5 48 6.6 43.9
10:15 1030 30.42 859 25.37 17.9 64.1 50 7.3 45.2
10:20 1029 30.39 859 25.37 18 64.4 49 7.4 45.3
10:25 1029 30.39 859 25.37 18.2 64.8 50 7.7 45.9
10:30 1029 30.39 859 25.37 18.4 65.1 50 7.8 46
10:35 1029 30.39 859 25.37 18.1 64.5 50 7.6 45.6
10:40 1029 30.39 859 25.37 18.5 65.4 48 7.3 45.2
10:45 1029 30.39 859 25.37 19.3 66.8 46 7.4 45.3
10:50 1029 30.39 859 25.37 18.8 65.8 49 7.9 46.2
10:55 1029 30.39 859 25.37 19.4 66.9 44 6.9 44.5
11:00 1029 30.39 859 25.37 20 68 44 7.3 45.2
11:05 1030 30.42 859 25.37 19.8 67.6 45 7.6 45.7
11:10 1029 30.39 859 25.37 19.4 66.9 47 7.9 46.3
11:15 1029 30.39 859 25.37 19.6 67.2 41 6.1 43
11:20 1029 30.39 859 25.37 20 67.9 40 6.2 43.2
11:25 1029 30.39 859 25.37 20 67.9 40 5.9 42.7
11:30 1029 30.39 859 25.37 19.9 67.8 40 6 42.8
11:35 1029 30.39 859 25.37 19.7 67.5 39 5.6 42.1
11:40 1029 30.39 859 25.37 19.8 67.6 40 6 42.8
11:45 1029 30.39 859 25.37 19.9 67.8 42 6.7 44.1
11:50 1029 30.39 859 25.37 20 67.9 41 6.3 43.4
11:55 1029 30.39 859 25.37 20.6 69 38 5.8 42.4
12:00 1029 30.39 859 25.37 20.6 69.2 37 5.4 41.8
12:05 1029 30.39 859 25.37 20.5 68.9 37 5.3 41.5
12:10 1029 30.39 859 25.37 20.8 69.4 35 4.9 40.9
12:15 1029 30.39 859 25.37 20.8 69.4 35 5.1 41.2
12:20 1029 30.39 859 25.37 20.5 68.9 35 4.6 40.3
12:25 1029 30.39 859 25.37 20.7 69.2 34 4.3 39.7
12:30 1029 30.39 859 25.37 21 69.8 34 4.6 40.2
12:35 1029 30.39 859 25.37 20.9 69.6 33 4.4 39.9
12:40 1029 30.39 858 25.34 21 69.9 33 4.1 39.4
12:45 1029 30.39 858 25.34 21.3 70.3 32 4.1 39.4
12:50 1029 30.39 858 25.34 21.4 70.6 33 4.8 40.7
12:55 1029 30.39 858 25.34 21.5 70.6 33 4.7 40.5
13:00 1029 30.39 858 25.34 21.3 70.4 34 5.1 41.1
13:05 1029 30.39 858 25.34 21.8 71.2 32 4.6 40.4
13:10 1029 30.39 858 25.34 22 71.6 31 4.4 39.9
13:15 1029 30.39 858 25.34 22.1 71.7 32 4.6 40.2
13:20 1029 30.39 858 25.34 21.4 70.5 33 4.4 40
13:25 1029 30.39 858 25.34 21.6 71 33 4.8 40.6
13:30 1029 30.39 858 25.34 21.8 71.2 31 4.3 39.7
13:35 1029 30.39 858 25.34 22.2 71.9 31 4.6 40.3
13:40 1029 30.39 858 25.34 22.5 72.5 31 4.9 40.8
13:45 1029 30.39 858 25.34 22.4 72.2 32 5.1 41.2
13:50 1029 30.39 858 25.34 22.3 72.2 31 4.4 39.9
13:55 1029 30.39 858 25.34 21.9 71.5 31 4.4 39.9
14:00 1029 30.39 858 25.34 22.2 71.9 31 4.4 39.8
14:05 1029 30.39 858 25.34 22.9 73.2 29 4 39.2
14:10 1029 30.39 858 25.34 22.8 73 31 5 41
14:15 1029 30.39 858 25.34 22.8 73.1 30 4.5 40.2
14:20 1029 30.39 858 25.34 22.5 72.5 31 4.8 40.7
14:25 1029 30.39 858 25.34 22.7 72.8 30 4.6 40.3
14:30 1029 30.39 858 25.34 22.9 73.2 30 4.6 40.2
14:35 1029 30.39 858 25.34 22.9 73.1 30 4.4 39.9
14:40 1029 30.39 858 25.34 22.7 72.8 31 4.6 40.4
14:45 1029 30.39 858 25.34 22.7 72.8 30 4.6 40.3
14:50 1029 30.39 858 25.34 22.6 72.7 31 4.6 40.3
14:55 1029 30.39 858 25.34 22.9 73.3 29 4.4 39.8
15:00 1029 30.39 858 25.34 23 73.4 30 4.5 40.2
15:05 1029 30.39 858 25.34 22.7 72.8 29 3.8 38.9
15:10 1029 30.39 858 25.34 23.2 73.8 28 4.1 39.4
15:15 1029 30.39 858 25.34 23.1 73.6 28 4 39.2
15:20 1029 30.39 858 25.34 23 73.4 28 3.7 38.7
15:25 1029 30.39 858 25.34 23.2 73.7 29 4.2 39.6
15:30 1029 30.39 858 25.34 23.5 74.2 29 4.7 40.5
15:35 1029 30.39 858 25.34 23.6 74.4 29 4.7 40.5
15:40 1029 30.39 858 25.34 23.2 73.8 28 3.8 38.8
15:45 1029 30.39 858 25.34 23.3 74 28 4.2 39.5
15:50 1029 30.39 858 25.34 23.7 74.7 27 3.9 39.1
15:55 1029 30.39 858 25.34 23.8 74.8 28 4.6 40.2
16:00 1029 30.39 858 25.34 23.9 74.9 28 4.5 40
16:05 1028 30.36 858 25.34 23.6 74.5 28 4.2 39.6
16:10 1028 30.36 858 25.34 23.7 74.6 28 4.1 39.4
16:15 1028 30.36 858 25.34 23.4 74.2 28 4.2 39.6
16:20 1028 30.36 858 25.34 23.4 74.1 28 3.8 38.9
16:25 1028 30.36 857 25.31 23.5 74.3 27 3.9 39
16:30 1028 30.36 858 25.34 23.3 74 28 3.8 38.9
16:35 1028 30.36 858 25.34 23.4 74.1 28 3.9 39
16:40 1028 30.36 857 25.31 23.6 74.4 27 3.6 38.6
16:45 1028 30.36 857 25.31 23.8 74.9 27 3.7 38.6
16:50 1028 30.36 857 25.31 23.8 74.8 27 4 39.2
16:55 1028 30.36 857 25.31 23.9 74.9 27 3.8 38.8
17:00 1028 30.36 857 25.31 23.6 74.5 28 4.3 39.7
17:05 1028 30.36 857 25.31 23.8 74.8 27 4 39.3
17:10 1028 30.36 857 25.31 24.1 75.3 26 3.6 38.5
17:15 1028 30.36 857 25.31 24 75.3 27 3.9 39
17:20 1028 30.36 857 25.31 23.9 75 26 3.5 38.2
17:25 1028 30.36 857 25.31 23.9 75 28 4.3 39.7
17:30 1028 30.36 857 25.31 23.7 74.6 27 3.6 38.4
17:35 1028 30.36 857 25.31 23.4 74.2 27 3.4 38.1
17:40 1028 30.36 857 25.31 23.5 74.3 28 4.1 39.4
17:45 1028 30.36 857 25.31 23.7 74.7 28 4.2 39.5
17:50 1028 30.36 857 25.31 23.6 74.5 27 3.8 38.8
17:55 1028 30.36 857 25.31 23.5 74.2 27 3.7 38.7
18:00 1028 30.36 857 25.31 23.3 74 28 3.9 39
18:05 1028 30.36 857 25.31 23.3 73.9 27 3.5 38.3
18:10 1028 30.36 857 25.31 23.3 74 28 4 39.1
18:15 1028 30.36 857 25.31 23.5 74.4 28 3.9 39.1
18:20 1028 30.36 857 25.31 23.4 74.1 27 3.7 38.6
18:25 1028 30.36 857 25.31 23.2 73.7 28 3.8 38.8
18:30 1028 30.36 857 25.31 23.3 73.9 28 3.8 38.8
18:35 1028 30.36 857 25.31 23.1 73.6 27 3.1 37.7
18:40 1028 30.36 857 25.31 23 73.3 27 3.2 37.8
18:45 1028 30.36 857 25.31 22.9 73.1 28 3.4 38.1
18:50 1028 30.36 857 25.31 22.8 73.1 27 3.2 37.8
18:55 1028 30.36 857 25.31 22.8 73 28 3.3 37.9
19:00 1028 30.36 857 25.31 22.7 72.9 27 3.1 37.6
19:05 1028 30.36 857 25.31 22.6 72.7 28 3.5 38.3
19:10 1028 30.36 857 25.31 22.7 72.8 27 2.9 37.2
19:15 1028 30.36 857 25.31 22.5 72.5 27 2.9 37.3
19:20 1028 30.36 857 25.31 22.4 72.3 29 3.5 38.3
19:25 1028 30.36 857 25.31 22.4 72.3 29 3.5 38.3
19:30 1028 30.36 857 25.31 22.3 72.2 28 3.1 37.6
19:35 1028 30.36 857 25.31 22.2 71.9 28 3.2 37.8
19:40 1028 30.36 857 25.31 22 71.6 30 3.7 38.6
19:45 1028 30.36 857 25.31 21.9 71.5 29 3.5 38.3
19:50 1028 30.36 857 25.31 21.8 71.2 30 3.7 38.6
19:55 1028 30.36 857 25.31 21.6 70.9 31 4 39.2
20:00 1028 30.36 857 25.31 21.5 70.6 32 4.2 39.5
20:05 1028 30.36 857 25.31 21.4 70.5 31 3.7 38.7
20:10 1028 30.36 857 25.31 21.2 70.2 31 3.7 38.7
20:15 1028 30.36 858 25.34 21.1 70 32 4 39.1
20:20 1028 30.36 858 25.34 21 69.8 32 3.9 39
20:25 1028 30.36 858 25.34 20.9 69.7 33 4.2 39.5
20:30 1028 30.36 858 25.34 20.8 69.5 32 3.6 38.5
20:35 1028 30.36 858 25.34 20.7 69.2 32 3.4 38
20:40 1029 30.39 858 25.34 20.6 69.1 32 3.5 38.2
20:45 1029 30.39 858 25.34 20.5 68.8 32 3.2 37.8
20:50 1029 30.39 858 25.34 20.3 68.6 32 3.2 37.8
20:55 1029 30.39 858 25.34 20.1 68.3 32 3.3 37.9
21:00 1029 30.39 858 25.34 20 68 32 3.1 37.7
21:05 1029 30.39 858 25.34 19.8 67.6 33 3.1 37.6
21:10 1029 30.39 858 25.34 19.6 67.3 33 3.2 37.8
21:15 1029 30.39 858 25.34 19.4 66.9 34 3.2 37.7
21:20 1029 30.39 858 25.34 19.1 66.4 35 3.3 38
21:25 1029 30.39 858 25.34 18.9 65.9 35 3.1 37.7
21:30 1029 30.39 858 25.34 18.7 65.6 35 3 37.4
21:35 1029 30.39 858 25.34 18.6 65.4 35 2.9 37.2
21:40 1029 30.39 858 25.34 18.5 65.3 34 2.5 36.6
21:45 1029 30.39 858 25.34 18.6 65.4 34 2.5 36.5
21:50 1029 30.39 858 25.34 18.6 65.4 33 2.3 36.2
21:55 1029 30.39 858 25.34 18.6 65.4 33 2.2 36
22:00 1029 30.39 858 25.34 18.6 65.5 33 2.1 35.8
22:05 1029 30.39 859 25.37 18.5 65.4 33 2 35.7
22:10 1029 30.39 859 25.37 18.5 65.3 33 2 35.7
22:15 1029 30.39 859 25.37 18.4 65.1 33 2.2 35.9
22:20 1029 30.39 859 25.37 18.3 64.9 34 2.1 35.8
22:25 1030 30.42 859 25.37 18.2 64.8 34 2.2 35.9
22:30 1030 30.42 859 25.37 18.2 64.7 34 2.1 35.8
22:35 1030 30.42 859 25.37 18.2 64.7 34 2.2 35.9
22:40 1030 30.42 859 25.37 18.2 64.7 34 2.2 36
22:45 1030 30.42 859 25.37 18.1 64.6 35 2.4 36.3
22:50 1030 30.42 859 25.37 18 64.4 35 2.4 36.4
22:55 1030 30.42 859 25.37 18 64.3 35 2.5 36.5
23:00 1030 30.42 859 25.37 17.9 64.2 36 2.7 36.8
23:05 1030 30.42 859 25.37 17.7 63.9 36 2.6 36.7
23:10 1030 30.42 859 25.37 17.6 63.6 37 2.8 37
23:15 1030 30.42 859 25.37 17.6 63.7 36 2.5 36.5
23:20 1030 30.42 859 25.37 17.6 63.7 36 2.6 36.7
23:25 1030 30.42 859 25.37 17.5 63.6 37 2.7 36.8
23:30 1030 30.42 859 25.37 17.4 63.3 37 2.6 36.7
23:35 1030 30.42 859 25.37 17.3 63.2 37 2.6 36.7
23:40 1030 30.42 859 25.37 17.3 63.1 37 2.7 36.8
23:45 1030 30.42 859 25.37 17.2 62.9 38 2.7 36.9
23:50 1030 30.42 859 25.37 17 62.5 38 2.7 36.9
23:55 1030 30.42 859 25.37 16.9 62.4 38 2.8 37
24:00 1030 30.42 859 25.37 16.8 62.3 38 2.7 36.8